Ana Sayfa
METAR-TAF:

METAR-TAF

Havaalanları :

Fuzhou, Çin

Enlem: 26-05N, Boylam: 119-17E, yükseklik: 85 m

Güncel hava durumu gözlemi

Rapor saat 14:00 UTC de 14 dakika önce yapıldı.
Rüzgar kuzey/kuzeydoğudan 10 kt
Sıcaklık 14°C
Nem 63%
Basınç 1031 hPa
Görüş mesafesi: 8000 m
5000 ft yükseklikte parçalı çok bulutlu

METAR: ZSFZ 221400Z 02005MPS 8000 BKN050 14/07 Q1031 NOSIG

Saat: 22:14 (14:14 UTC)

Tahmin

Rapor saat 09:00 UTC de 5 saat ve 14 dakika önce yapıldı.
Ayın 22'si saat 12 UTC'den ayın 23'si saat 12 UTC'ye kadar geçerli Tahmin
Rüzgar kuzeydoğudan 12 kt
Görüş mesafesi: 7000 m
1500 ft yükseklikte parçalı çok bulutlu

TAF: ZSFZ 220900Z 2212/2312 04006MPS 7000 BKN015 TX18/2306Z TN12/2221Z

4.000'den fazla havaalanı için hava durumu gözlemleri ve tahminleri (METAR ve TAF raporları).

Kullanılabilir istasyonlar harita üzerinde sarı ve kırmızı noktalarla gösterilir.

İstasyonun adını görmek için fareyi noktanın üzerinde gezdirin.

Sonrasında hava gözlem ve tahminlerini görmek için tıklayın.

Haritayı değiştirmek için: yaklaştırmak için siyah artı işaretli yeşil düğmeye ve uzaklaştırmak için de eksi işaretli düğmeye hızla tıklayın; bitişik haritalar için yeşil okları kullanın.


METAR-TAF: